sensor_id;sensor_type;location;lat;lon;timestamp;P1;durP1;ratioP1;P2;durP2;ratioP2
16673;SDS011;8450;52.654;10.326;2023-02-22T06:51:46;40.30;;;20.57;;
16673;SDS011;8450;52.654;10.326;2023-02-22T06:54:12;45.13;;;22.40;;
16673;SDS011;8450;52.654;10.326;2023-02-22T06:56:38;36.00;;;20.50;;
16673;SDS011;8450;52.654;10.326;2023-02-22T06:59:04;40.63;;;20.47;;
16673;SDS011;8450;52.654;10.326;2023-02-22T07:01:29;35.23;;;20.03;;
16673;SDS011;8450;52.654;10.326;2023-02-22T07:03:55;37.67;;;22.23;;
16673;SDS011;8450;52.654;10.326;2023-02-22T07:06:21;36.80;;;20.33;;
16673;SDS011;8450;52.654;10.326;2023-02-22T07:08:47;46.20;;;21.40;;
16673;SDS011;8450;52.654;10.326;2023-02-22T07:11:13;39.37;;;21.23;;
16673;SDS011;8450;52.654;10.326;2023-02-22T07:13:40;45.37;;;22.60;;
16673;SDS011;8450;52.654;10.326;2023-02-22T07:16:05;41.37;;;20.90;;
16673;SDS011;8450;52.654;10.326;2023-02-22T07:18:31;38.93;;;19.73;;
16673;SDS011;8450;52.654;10.326;2023-02-22T07:20:56;35.30;;;19.80;;
16673;SDS011;8450;52.654;10.326;2023-02-22T07:23:22;40.40;;;20.53;;
16673;SDS011;8450;52.654;10.326;2023-02-22T07:25:48;44.07;;;21.00;;
16673;SDS011;8450;52.654;10.326;2023-02-22T07:28:14;45.73;;;21.37;;
16673;SDS011;8450;52.654;10.326;2023-02-22T07:30:40;40.27;;;20.20;;
16673;SDS011;8450;52.654;10.326;2023-02-22T07:33:08;41.50;;;19.77;;
16673;SDS011;8450;52.654;10.326;2023-02-22T07:35:36;33.90;;;19.13;;
16673;SDS011;8450;52.654;10.326;2023-02-22T07:38:07;36.03;;;18.50;;
16673;SDS011;8450;52.654;10.326;2023-02-22T07:40:34;37.37;;;19.00;;
16673;SDS011;8450;52.654;10.326;2023-02-22T07:43:43;39.20;;;19.57;;
16673;SDS011;8450;52.654;10.326;2023-02-22T07:45:53;34.37;;;19.13;;
16673;SDS011;8450;52.654;10.326;2023-02-22T07:48:24;33.20;;;17.37;;
16673;SDS011;8450;52.654;10.326;2023-02-22T07:50:52;33.63;;;18.17;;
16673;SDS011;8450;52.654;10.326;2023-02-22T07:53:22;33.43;;;18.23;;
16673;SDS011;8450;52.654;10.326;2023-02-22T07:55:50;35.73;;;18.87;;
16673;SDS011;8450;52.654;10.326;2023-02-22T07:58:18;31.00;;;17.23;;
16673;SDS011;8450;52.654;10.326;2023-02-22T08:00:45;30.40;;;16.63;;
16673;SDS011;8450;52.654;10.326;2023-02-22T08:03:14;32.33;;;17.70;;
16673;SDS011;8450;52.654;10.326;2023-02-22T08:05:44;28.73;;;16.93;;
16673;SDS011;8450;52.654;10.326;2023-02-22T08:08:12;34.07;;;17.57;;
16673;SDS011;8450;52.654;10.326;2023-02-22T08:10:41;29.07;;;15.63;;
16673;SDS011;8450;52.654;10.326;2023-02-22T08:13:07;26.97;;;15.33;;
16673;SDS011;8450;52.654;10.326;2023-02-22T08:15:34;30.37;;;16.43;;
16673;SDS011;8450;52.654;10.326;2023-02-22T08:18:03;31.03;;;16.07;;
16673;SDS011;8450;52.654;10.326;2023-02-22T08:20:33;26.60;;;14.63;;
16673;SDS011;8450;52.654;10.326;2023-02-22T08:22:59;25.43;;;14.50;;
16673;SDS011;8450;52.654;10.326;2023-02-22T08:25:26;27.50;;;15.50;;
16673;SDS011;8450;52.654;10.326;2023-02-22T08:27:57;28.37;;;14.93;;
16673;SDS011;8450;52.654;10.326;2023-02-22T08:30:25;30.47;;;16.33;;
16673;SDS011;8450;52.654;10.326;2023-02-22T08:32:52;25.40;;;14.17;;
16673;SDS011;8450;52.654;10.326;2023-02-22T08:35:18;26.53;;;14.43;;
16673;SDS011;8450;52.654;10.326;2023-02-22T08:37:45;25.60;;;14.00;;
16673;SDS011;8450;52.654;10.326;2023-02-22T08:40:12;25.07;;;14.17;;
16673;SDS011;8450;52.654;10.326;2023-02-22T08:42:41;27.40;;;15.70;;
16673;SDS011;8450;52.654;10.326;2023-02-22T08:45:07;27.50;;;13.87;;
16673;SDS011;8450;52.654;10.326;2023-02-22T08:47:32;23.10;;;14.63;;
16673;SDS011;8450;52.654;10.326;2023-02-22T08:49:58;26.00;;;14.37;;
16673;SDS011;8450;52.654;10.326;2023-02-22T08:52:24;27.10;;;14.00;;
16673;SDS011;8450;52.654;10.326;2023-02-22T08:54:49;24.93;;;14.03;;
16673;SDS011;8450;52.654;10.326;2023-02-22T08:57:15;21.20;;;11.27;;
16673;SDS011;8450;52.654;10.326;2023-02-22T08:59:40;25.50;;;14.13;;
16673;SDS011;8450;52.654;10.326;2023-02-22T09:02:13;24.97;;;13.90;;
16673;SDS011;8450;52.654;10.326;2023-02-22T09:04:40;23.00;;;12.93;;
16673;SDS011;8450;52.654;10.326;2023-02-22T09:07:05;23.43;;;13.20;;
16673;SDS011;8450;52.654;10.326;2023-02-22T09:09:31;25.00;;;13.00;;
16673;SDS011;8450;52.654;10.326;2023-02-22T09:11:56;23.30;;;13.37;;
16673;SDS011;8450;52.654;10.326;2023-02-22T09:14:22;19.80;;;12.60;;
16673;SDS011;8450;52.654;10.326;2023-02-22T09:16:47;22.80;;;12.57;;
16673;SDS011;8450;52.654;10.326;2023-02-22T09:19:13;19.13;;;11.97;;
16673;SDS011;8450;52.654;10.326;2023-02-22T09:21:38;21.83;;;12.97;;
16673;SDS011;8450;52.654;10.326;2023-02-22T09:24:05;21.67;;;12.83;;
16673;SDS011;8450;52.654;10.326;2023-02-22T09:26:38;19.97;;;11.90;;
16673;SDS011;8450;52.654;10.326;2023-02-22T09:29:09;24.13;;;12.93;;
16673;SDS011;8450;52.654;10.326;2023-02-22T09:31:36;17.93;;;11.57;;
16673;SDS011;8450;52.654;10.326;2023-02-22T09:34:03;20.43;;;12.03;;
16673;SDS011;8450;52.654;10.326;2023-02-22T09:36:38;20.10;;;12.37;;
16673;SDS011;8450;52.654;10.326;2023-02-22T09:39:07;21.83;;;12.37;;
16673;SDS011;8450;52.654;10.326;2023-02-22T09:41:47;19.83;;;11.17;;
16673;SDS011;8450;52.654;10.326;2023-02-22T09:44:23;21.57;;;11.73;;
16673;SDS011;8450;52.654;10.326;2023-02-22T09:47:00;17.73;;;11.17;;
16673;SDS011;8450;52.654;10.326;2023-02-22T09:49:29;17.77;;;11.27;;
16673;SDS011;8450;52.654;10.326;2023-02-22T09:52:16;18.40;;;12.00;;
16673;SDS011;8450;52.654;10.326;2023-02-22T09:54:51;15.87;;;10.63;;
16673;SDS011;8450;52.654;10.326;2023-02-22T09:57:33;18.27;;;10.73;;
16673;SDS011;8450;52.654;10.326;2023-02-22T10:02:59;15.63;;;10.27;;
16673;SDS011;8450;52.654;10.326;2023-02-22T10:05:43;21.53;;;10.87;;
16673;SDS011;8450;52.654;10.326;2023-02-22T10:08:14;15.00;;;9.37;;
16673;SDS011;8450;52.654;10.326;2023-02-22T10:10:43;16.57;;;9.77;;
16673;SDS011;8450;52.654;10.326;2023-02-22T10:13:15;12.80;;;9.70;;
16673;SDS011;8450;52.654;10.326;2023-02-22T10:16:07;15.43;;;9.47;;
16673;SDS011;8450;52.654;10.326;2023-02-22T10:18:49;14.97;;;9.77;;
16673;SDS011;8450;52.654;10.326;2023-02-22T10:26:32;14.60;;;9.43;;
16673;SDS011;8450;52.654;10.326;2023-02-22T10:32:04;14.90;;;8.67;;
16673;SDS011;8450;52.654;10.326;2023-02-22T10:34:37;11.83;;;8.03;;
16673;SDS011;8450;52.654;10.326;2023-02-22T10:37:21;11.93;;;8.03;;
16673;SDS011;8450;52.654;10.326;2023-02-22T10:39:48;11.23;;;7.90;;
16673;SDS011;8450;52.654;10.326;2023-02-22T10:42:16;12.57;;;8.43;;
16673;SDS011;8450;52.654;10.326;2023-02-22T10:44:49;9.97;;;7.87;;
16673;SDS011;8450;52.654;10.326;2023-02-22T10:47:14;11.83;;;7.80;;
16673;SDS011;8450;52.654;10.326;2023-02-22T10:49:55;11.77;;;7.47;;
16673;SDS011;8450;52.654;10.326;2023-02-22T10:52:23;10.00;;;7.93;;
16673;SDS011;8450;52.654;10.326;2023-02-22T10:54:53;13.87;;;8.57;;
16673;SDS011;8450;52.654;10.326;2023-02-22T10:57:21;12.47;;;8.63;;
16673;SDS011;8450;52.654;10.326;2023-02-22T10:59:50;9.33;;;6.80;;
16673;SDS011;8450;52.654;10.326;2023-02-22T11:02:20;10.47;;;7.63;;
16673;SDS011;8450;52.654;10.326;2023-02-22T11:04:55;10.13;;;6.67;;
16673;SDS011;8450;52.654;10.326;2023-02-22T11:07:27;12.10;;;8.50;;
16673;SDS011;8450;52.654;10.326;2023-02-22T11:10:04;10.40;;;7.73;;
16673;SDS011;8450;52.654;10.326;2023-02-22T11:17:50;11.70;;;7.83;;
16673;SDS011;8450;52.654;10.326;2023-02-22T11:20:27;10.63;;;7.70;;
16673;SDS011;8450;52.654;10.326;2023-02-22T11:23:03;11.70;;;7.63;;
16673;SDS011;8450;52.654;10.326;2023-02-22T11:25:31;10.43;;;7.17;;
16673;SDS011;8450;52.654;10.326;2023-02-22T11:28:09;12.03;;;7.73;;
16673;SDS011;8450;52.654;10.326;2023-02-22T11:30:40;11.53;;;7.63;;
16673;SDS011;8450;52.654;10.326;2023-02-22T11:35:50;9.97;;;7.40;;
16673;SDS011;8450;52.654;10.326;2023-02-22T11:38:27;11.77;;;7.40;;
16673;SDS011;8450;52.654;10.326;2023-02-22T11:41:20;9.30;;;6.93;;
16673;SDS011;8450;52.654;10.326;2023-02-22T11:43:51;9.93;;;7.40;;
16673;SDS011;8450;52.654;10.326;2023-02-22T11:46:22;10.80;;;7.43;;
16673;SDS011;8450;52.654;10.326;2023-02-22T11:54:06;9.30;;;7.63;;
16673;SDS011;8450;52.654;10.326;2023-02-22T11:56:52;10.87;;;7.37;;
16673;SDS011;8450;52.654;10.326;2023-02-22T11:59:50;9.67;;;6.93;;
16673;SDS011;8450;52.654;10.326;2023-02-22T12:05:18;10.07;;;6.50;;
16673;SDS011;8450;52.654;10.326;2023-02-22T12:08:19;10.03;;;7.70;;
16673;SDS011;8450;52.654;10.326;2023-02-22T12:11:02;9.40;;;7.20;;
16673;SDS011;8450;52.654;10.326;2023-02-22T12:16:45;11.17;;;7.30;;
16673;SDS011;8450;52.654;10.326;2023-02-22T12:22:07;11.87;;;8.10;;
16673;SDS011;8450;52.654;10.326;2023-02-22T12:24:42;10.87;;;7.27;;
16673;SDS011;8450;52.654;10.326;2023-02-22T12:27:32;8.30;;;6.57;;
16673;SDS011;8450;52.654;10.326;2023-02-22T12:30:11;10.40;;;7.80;;
16673;SDS011;8450;52.654;10.326;2023-02-22T12:32:42;9.53;;;7.17;;
16673;SDS011;8450;52.654;10.326;2023-02-22T12:43:48;10.50;;;7.73;;
16673;SDS011;8450;52.654;10.326;2023-02-22T12:49:15;8.77;;;6.90;;
16673;SDS011;8450;52.654;10.326;2023-02-22T12:54:58;12.20;;;7.90;;
16673;SDS011;8450;52.654;10.326;2023-02-22T13:00:38;13.13;;;8.67;;
16673;SDS011;8450;52.654;10.326;2023-02-22T13:05:50;10.17;;;7.53;;
16673;SDS011;8450;52.654;10.326;2023-02-22T13:08:29;9.20;;;7.53;;
16673;SDS011;8450;52.654;10.326;2023-02-22T13:11:04;12.30;;;8.13;;
16673;SDS011;8450;52.654;10.326;2023-02-22T13:13:36;12.33;;;8.57;;
16673;SDS011;8450;52.654;10.326;2023-02-22T13:21:57;11.23;;;8.03;;
16673;SDS011;8450;52.654;10.326;2023-02-22T13:24:38;12.33;;;8.47;;
16673;SDS011;8450;52.654;10.326;2023-02-22T13:27:32;12.10;;;9.13;;
16673;SDS011;8450;52.654;10.326;2023-02-22T13:30:22;11.27;;;8.17;;
16673;SDS011;8450;52.654;10.326;2023-02-22T13:33:21;10.37;;;7.43;;
16673;SDS011;8450;52.654;10.326;2023-02-22T13:38:41;14.10;;;9.00;;
16673;SDS011;8450;52.654;10.326;2023-02-22T13:43:52;10.97;;;7.60;;
16673;SDS011;8450;52.654;10.326;2023-02-22T13:51:56;10.63;;;8.63;;
16673;SDS011;8450;52.654;10.326;2023-02-22T13:57:16;10.23;;;8.07;;
16673;SDS011;8450;52.654;10.326;2023-02-22T13:59:47;9.97;;;7.90;;
16673;SDS011;8450;52.654;10.326;2023-02-22T14:05:36;9.77;;;7.67;;
16673;SDS011;8450;52.654;10.326;2023-02-22T14:13:08;12.07;;;8.87;;
16673;SDS011;8450;52.654;10.326;2023-02-22T14:15:34;10.23;;;8.10;;
16673;SDS011;8450;52.654;10.326;2023-02-22T14:18:14;10.67;;;8.23;;
16673;SDS011;8450;52.654;10.326;2023-02-22T14:20:41;9.50;;;7.20;;
16673;SDS011;8450;52.654;10.326;2023-02-22T14:26:15;10.53;;;7.97;;
16673;SDS011;8450;52.654;10.326;2023-02-22T14:29:18;10.70;;;7.57;;
16673;SDS011;8450;52.654;10.326;2023-02-22T14:34:11;9.87;;;7.67;;
16673;SDS011;8450;52.654;10.326;2023-02-22T14:36:55;10.83;;;7.87;;
16673;SDS011;8450;52.654;10.326;2023-02-22T14:42:13;12.60;;;9.30;;
16673;SDS011;8450;52.654;10.326;2023-02-22T14:55:49;11.30;;;8.20;;
16673;SDS011;8450;52.654;10.326;2023-02-22T14:58:20;12.00;;;8.60;;
16673;SDS011;8450;52.654;10.326;2023-02-22T15:00:48;11.90;;;9.13;;
16673;SDS011;8450;52.654;10.326;2023-02-22T15:05:52;12.47;;;8.73;;
16673;SDS011;8450;52.654;10.326;2023-02-22T15:08:18;11.20;;;8.97;;
16673;SDS011;8450;52.654;10.326;2023-02-22T15:10:52;10.33;;;8.43;;
16673;SDS011;8450;52.654;10.326;2023-02-22T15:15:55;12.03;;;8.97;;
16673;SDS011;8450;52.654;10.326;2023-02-22T15:18:27;13.23;;;9.93;;
16673;SDS011;8450;52.654;10.326;2023-02-22T15:21:01;12.40;;;9.80;;
16673;SDS011;8450;52.654;10.326;2023-02-22T15:26:13;11.43;;;9.13;;
16673;SDS011;8450;52.654;10.326;2023-02-22T15:28:41;12.87;;;9.43;;
16673;SDS011;8450;52.654;10.326;2023-02-22T15:31:17;13.97;;;9.33;;
16673;SDS011;8450;52.654;10.326;2023-02-22T15:33:49;18.20;;;11.07;;
16673;SDS011;8450;52.654;10.326;2023-02-22T15:36:19;15.37;;;10.30;;
16673;SDS011;8450;52.654;10.326;2023-02-22T15:38:49;12.17;;;8.87;;
16673;SDS011;8450;52.654;10.326;2023-02-22T15:41:22;14.63;;;10.13;;
16673;SDS011;8450;52.654;10.326;2023-02-22T15:43:59;15.13;;;10.20;;
16673;SDS011;8450;52.654;10.326;2023-02-22T15:46:25;15.27;;;11.13;;
16673;SDS011;8450;52.654;10.326;2023-02-22T15:49:07;15.97;;;11.47;;
16673;SDS011;8450;52.654;10.326;2023-02-22T15:51:43;13.67;;;9.20;;
16673;SDS011;8450;52.654;10.326;2023-02-22T15:54:13;16.70;;;10.43;;
16673;SDS011;8450;52.654;10.326;2023-02-22T15:56:40;12.60;;;9.23;;
16673;SDS011;8450;52.654;10.326;2023-02-22T15:59:13;14.33;;;10.17;;
16673;SDS011;8450;52.654;10.326;2023-02-22T16:01:45;14.53;;;10.17;;
16673;SDS011;8450;52.654;10.326;2023-02-22T16:04:17;14.80;;;10.07;;
16673;SDS011;8450;52.654;10.326;2023-02-22T16:06:45;14.10;;;9.13;;
16673;SDS011;8450;52.654;10.326;2023-02-22T16:09:21;13.47;;;9.97;;
16673;SDS011;8450;52.654;10.326;2023-02-22T16:12:07;12.90;;;9.50;;
